Time;durP1;ratioP1;P1;durP2;ratioP2;P2;SDS_P1;SDS_P2;PMS_P1;PMS_P2;Temp;Humidity;BMP_temperature;BMP_pressure;BME280_temperature;BME280_humidity;BME280_pressure;Samples;Min_cycle;Max_cycle;Signal;HPM_P1;HPM_P2
2022/07/29 00:02:06;;;;;;;14.47;13.23;;;;;;;18.18;91.67;93007.28;5091305;28;20182;-74
2022/07/29 00:04:34;;;;;;;13.47;12.43;;;;;;;18.14;91.67;93011.63;5093178;28;20193;-74
2022/07/29 00:06:59;;;;;;;13.50;12.40;;;;;;;18.13;90.99;92996.88;5091230;28;20184;-74
2022/07/29 00:09:25;;;;;;;13.40;12.17;;;;;;;18.35;89.52;93029.13;5091048;28;20776;-74
2022/07/29 00:11:50;;;;;;;12.13;11.23;;;;;;;18.42;87.66;93041.91;5091838;28;20218;-74
2022/07/29 00:14:16;;;;;;;13.90;12.80;;;;;;;18.46;88.74;93043.59;5091482;28;20188;-73
2022/07/29 00:16:41;;;;;;;12.43;11.43;;;;;;;18.41;87.16;93035.09;5091750;28;20216;-75
2022/07/29 00:19:06;;;;;;;13.20;12.20;;;;;;;18.20;88.69;93064.00;5089885;28;20208;-74
2022/07/29 00:21:32;;;;;;;13.77;12.63;;;;;;;18.11;88.08;93051.91;5088984;28;20184;-74
2022/07/29 00:23:57;;;;;;;13.97;12.77;;;;;;;18.23;89.03;93066.03;5090004;28;20220;-73
2022/07/29 00:26:23;;;;;;;13.37;12.27;;;;;;;17.93;89.08;93023.97;5091106;28;20196;-74
2022/07/29 00:28:48;;;;;;;13.40;12.30;;;;;;;18.03;92.30;93056.09;5090521;28;20229;-74
2022/07/29 00:31:13;;;;;;;13.27;12.07;;;;;;;17.96;91.83;93037.28;5090539;28;20213;-74
2022/07/29 00:33:39;;;;;;;13.50;12.40;;;;;;;18.01;92.49;93046.94;5090776;28;20284;-74
2022/07/29 00:36:05;;;;;;;13.53;12.53;;;;;;;17.88;92.80;93024.13;5091800;28;20197;-74
2022/07/29 00:38:30;;;;;;;13.40;12.30;;;;;;;18.02;92.65;93051.13;5090305;28;20325;-74
2022/07/29 00:40:55;;;;;;;14.43;13.17;;;;;;;17.88;92.46;93043.38;5090118;28;20757;-74
2022/07/29 00:43:21;;;;;;;12.57;11.47;;;;;;;17.96;93.12;93050.50;5088338;28;20276;-74
2022/07/29 00:45:46;;;;;;;12.97;12.07;;;;;;;17.82;92.62;93055.19;5091697;28;20216;-74
2022/07/29 00:48:11;;;;;;;13.90;12.70;;;;;;;17.49;93.19;93040.91;5090543;28;20217;-74
2022/07/29 00:50:38;;;;;;;14.17;12.87;;;;;;;17.89;92.93;93066.06;5088454;28;20193;-74
2022/07/29 00:53:06;;;;;;;14.60;13.23;;;;;;;17.78;94.80;93061.41;5090308;28;20285;-73
2022/07/29 00:55:31;;;;;;;14.17;12.77;;;;;;;17.74;94.56;93048.06;5089606;28;20195;-74
2022/07/29 00:57:58;;;;;;;13.50;12.40;;;;;;;17.83;93.72;93053.31;5090466;28;20224;-74
2022/07/29 01:00:26;;;;;;;13.97;12.67;;;;;;;17.76;93.43;93050.38;5089425;28;20177;-74
2022/07/29 01:02:52;;;;;;;13.23;12.23;;;;;;;17.54;94.82;93040.75;5089697;28;20224;-73
2022/07/29 01:05:19;;;;;;;12.97;11.80;;;;;;;17.68;95.21;93048.53;5090647;28;20200;-74
2022/07/29 01:07:46;;;;;;;12.80;11.80;;;;;;;17.63;95.51;93052.84;5089104;28;20285;-74
2022/07/29 01:10:13;;;;;;;13.50;12.57;;;;;;;17.67;94.82;93054.88;5088857;28;20185;-73
2022/07/29 01:12:40;;;;;;;13.53;12.50;;;;;;;17.60;95.00;93052.72;5088984;28;20236;-75
2022/07/29 01:15:07;;;;;;;15.40;14.10;;;;;;;17.28;94.58;93026.72;5090574;28;20200;-74
2022/07/29 01:17:44;;;;;;;14.03;12.83;;;;;;;17.51;94.69;93050.06;5088980;28;20225;-75
2022/07/29 01:20:43;;;;;;;14.27;13.10;;;;;;;17.57;96.50;93051.44;5089263;28;20215;-74
2022/07/29 01:23:33;;;;;;;12.97;11.97;;;;;;;17.62;96.87;93044.47;5089733;28;20236;-74
2022/07/29 01:26:17;;;;;;;14.73;13.53;;;;;;;17.59;97.14;93051.94;5089774;28;20204;-74
2022/07/29 01:28:59;;;;;;;13.13;12.03;;;;;;;17.42;97.10;93041.31;5086623;28;20256;-74
2022/07/29 01:31:32;;;;;;;14.73;13.43;;;;;;;17.62;96.46;93049.75;5089092;28;20262;-75
2022/07/29 01:34:03;;;;;;;14.73;13.50;;;;;;;17.39;97.75;93039.31;5088799;28;20259;-75
2022/07/29 01:36:49;;;;;;;14.87;13.63;;;;;;;17.35;99.08;93029.69;5089716;28;20185;-74
2022/07/29 01:39:33;;;;;;;14.77;13.27;;;;;;;17.27;100.00;93020.66;5085945;28;20208;-73
2022/07/29 01:42:19;;;;;;;14.50;13.30;;;;;;;17.36;100.00;93023.31;5090039;28;20185;-74
2022/07/29 01:45:00;;;;;;;15.00;13.60;;;;;;;17.41;99.43;93023.16;5089723;28;20161;-75
2022/07/29 01:47:34;;;;;;;14.60;13.20;;;;;;;17.25;99.83;93014.91;5089798;28;20228;-74
2022/07/29 01:50:04;;;;;;;14.90;13.47;;;;;;;17.23;99.77;93017.06;5089548;28;20206;-75
2022/07/29 01:52:36;;;;;;;13.67;12.57;;;;;;;17.28;99.87;93019.56;5089921;28;20228;-74
2022/07/29 01:55:08;;;;;;;14.60;13.33;;;;;;;17.31;100.00;93026.09;5089293;28;20189;-73
2022/07/29 01:57:35;;;;;;;15.23;13.87;;;;;;;17.33;100.00;93022.06;5089475;28;20225;-74
2022/07/29 02:00:01;;;;;;;14.73;13.33;;;;;;;17.31;100.00;93024.22;5089506;28;20357;-74
2022/07/29 02:02:30;;;;;;;15.03;13.83;;;;;;;17.32;100.00;93009.94;5088906;28;20295;-74
2022/07/29 02:04:57;;;;;;;14.80;13.70;;;;;;;17.22;100.00;92998.91;5089483;28;20199;-74
2022/07/29 02:07:24;;;;;;;13.10;12.10;;;;;;;17.22;100.00;92993.63;5089313;28;20226;-75
2022/07/29 02:09:51;;;;;;;13.07;11.93;;;;;;;17.32;100.00;93011.81;5089691;28;20181;-73
2022/07/29 02:12:19;;;;;;;13.60;12.50;;;;;;;17.29;100.00;93013.19;5088919;28;20284;-74
2022/07/29 02:14:52;;;;;;;14.57;13.20;;;;;;;17.33;100.00;93014.16;5090220;28;20214;-73
2022/07/29 02:17:27;;;;;;;13.60;12.50;;;;;;;17.07;100.00;92976.41;5088027;28;20234;-74
2022/07/29 02:19:57;;;;;;;13.30;12.20;;;;;;;17.24;100.00;93005.47;5087505;28;20199;-73
2022/07/29 02:22:24;;;;;;;14.47;13.27;;;;;;;17.29;100.00;92997.38;5088259;28;20232;-74
2022/07/29 02:24:51;;;;;;;14.50;13.37;;;;;;;17.46;100.00;93005.31;5090751;28;20279;-74
2022/07/29 02:27:19;;;;;;;14.23;13.03;;;;;;;17.49;99.70;93003.94;5092581;28;20221;-74
2022/07/29 02:29:47;;;;;;;13.87;12.77;;;;;;;17.43;100.00;93007.78;5090109;28;20231;-74
2022/07/29 02:32:15;;;;;;;13.90;12.50;;;;;;;17.34;100.00;93004.34;5093169;28;20228;-74
2022/07/29 02:34:42;;;;;;;16.57;12.07;;;;;;;17.57;100.00;92997.88;5093275;28;20638;-74
2022/07/29 02:37:11;;;;;;;13.97;12.77;;;;;;;17.70;98.99;92998.81;5090797;28;20196;-74
2022/07/29 02:39:38;;;;;;;13.77;12.77;;;;;;;17.86;97.54;92986.66;5093337;28;20201;-73
2022/07/29 02:42:07;;;;;;;12.97;12.07;;;;;;;17.89;98.10;92991.31;5093299;28;20197;-74
2022/07/29 02:44:34;;;;;;;13.90;12.90;;;;;;;17.96;97.22;92979.16;5092051;28;20193;-74
2022/07/29 02:47:06;;;;;;;13.77;12.77;;;;;;;17.91;98.34;92970.66;5092357;28;20192;-73
2022/07/29 02:49:39;;;;;;;13.80;12.43;;;;;;;18.12;97.37;92969.66;5092226;28;20204;-74
2022/07/29 02:52:15;;;;;;;13.37;12.37;;;;;;;18.12;96.75;92974.94;5090026;28;20209;-73
2022/07/29 02:54:54;;;;;;;13.57;12.20;;;;;;;18.11;96.36;92967.34;5092306;28;20255;-74
2022/07/29 02:57:32;;;;;;;13.13;12.03;;;;;;;18.18;95.78;92962.34;5092788;28;20227;-74
2022/07/29 03:00:06;;;;;;;14.30;13.23;;;;;;;18.11;96.58;92962.84;5092822;28;20192;-73
2022/07/29 03:02:39;;;;;;;12.50;11.27;;;;;;;18.13;96.76;92962.53;5085965;28;20237;-74
2022/07/29 03:05:07;;;;;;;12.87;11.87;;;;;;;18.23;94.93;92964.81;5071088;28;20186;-73
2022/07/29 03:07:34;;;;;;;12.50;11.30;;;;;;;18.25;90.96;92957.34;5076249;28;20233;-74
2022/07/29 03:10:01;;;;;;;13.63;12.40;;;;;;;17.76;94.75;92942.09;5090560;28;20185;-73
2022/07/29 03:12:28;;;;;;;13.23;12.13;;;;;;;17.68;96.08;92977.22;5092512;28;20236;-74
2022/07/29 03:14:54;;;;;;;14.23;13.13;;;;;;;17.45;97.66;92972.09;5091539;28;20205;-74
2022/07/29 03:17:21;;;;;;;13.87;12.77;;;;;;;17.28;98.78;92973.94;5091857;28;20275;-74
2022/07/29 03:19:47;;;;;;;14.63;13.53;;;;;;;17.31;99.40;92981.22;5091932;28;20188;-74
2022/07/29 03:22:13;;;;;;;15.17;13.93;;;;;;;17.20;98.75;92954.38;5091909;28;20220;-74
2022/07/29 03:24:39;;;;;;;13.60;12.60;;;;;;;17.46;99.10;92986.84;5092321;28;20214;-74
2022/07/29 03:27:05;;;;;;;15.17;13.63;;;;;;;17.34;98.63;92991.16;5092006;28;20217;-74
2022/07/29 03:29:31;;;;;;;14.23;13.03;;;;;;;17.52;98.71;93000.69;5092237;28;20228;-74
2022/07/29 03:31:56;;;;;;;13.53;12.33;;;;;;;17.48;98.38;92976.75;5091746;28;20231;-73
2022/07/29 03:34:22;;;;;;;14.83;13.47;;;;;;;17.39;98.33;92999.72;5091642;28;20184;-74
2022/07/29 03:36:47;;;;;;;14.40;12.87;;;;;;;17.38;99.10;92992.91;5092411;28;20215;-74
2022/07/29 03:39:17;;;;;;;14.57;13.17;;;;;;;17.51;98.70;92999.09;5090848;28;20293;-74
2022/07/29 03:41:45;;;;;;;14.73;13.37;;;;;;;17.56;98.14;93001.59;5091047;28;20197;-74
2022/07/29 03:44:12;;;;;;;13.80;12.70;;;;;;;17.66;97.61;92997.88;5087716;28;20223;-74
2022/07/29 03:46:39;;;;;;;14.93;13.73;;;;;;;17.65;97.62;93010.28;5090266;28;20200;-74
2022/07/29 03:49:08;;;;;;;15.47;14.27;;;;;;;17.67;97.29;93004.69;5089451;28;20240;-74
2022/07/29 03:51:33;;;;;;;13.60;12.60;;;;;;;17.47;98.17;92985.00;5091033;28;20204;-74
2022/07/29 03:53:59;;;;;;;15.73;14.20;;;;;;;17.77;97.33;93005.19;5088585;28;20231;-74
2022/07/29 03:56:27;;;;;;;15.00;13.70;;;;;;;17.85;96.61;93001.75;5088139;28;20193;-75
2022/07/29 03:58:53;;;;;;;14.93;13.53;;;;;;;17.85;96.57;93008.88;5090197;28;20222;-73
2022/07/29 04:01:20;;;;;;;13.73;12.63;;;;;;;17.75;96.95;93006.56;5090589;28;20221;-74
2022/07/29 04:03:45;;;;;;;14.17;12.97;;;;;;;17.62;97.06;92987.16;5089819;28;20294;-75
2022/07/29 04:06:11;;;;;;;15.20;13.80;;;;;;;17.64;97.51;93011.38;5091129;28;20197;-74
2022/07/29 04:08:37;;;;;;;14.13;13.03;;;;;;;17.85;95.95;92995.69;5066856;28;20229;-73
2022/07/29 04:11:04;;;;;;;13.60;12.33;;;;;;;18.08;93.96;93000.47;5064353;28;20182;-75
2022/07/29 04:13:30;;;;;;;14.10;12.70;;;;;;;18.23;94.22;93021.09;5068648;28;20225;-74
2022/07/29 04:15:56;;;;;;;13.70;12.50;;;;;;;18.46;91.50;93006.59;5052721;28;20207;-73
2022/07/29 04:18:21;;;;;;;13.77;12.57;;;;;;;18.64;91.36;93020.53;5082918;28;20209;-74
2022/07/29 04:20:47;;;;;;;13.50;12.37;;;;;;;18.73;91.17;93023.91;5091163;28;20196;-74
2022/07/29 04:23:12;;;;;;;13.03;12.00;;;;;;;18.93;89.91;93020.53;5089227;28;20230;-74
2022/07/29 04:25:39;;;;;;;14.17;13.10;;;;;;;18.84;90.22;93019.81;5086310;28;20194;-70
2022/07/29 04:28:05;;;;;;;14.23;12.90;;;;;;;18.79;89.12;93009.41;5088811;28;20232;-70
2022/07/29 04:30:32;;;;;;;14.23;13.03;;;;;;;18.49;89.42;93011.25;5090711;28;20202;-70
2022/07/29 04:32:58;;;;;;;14.27;12.83;;;;;;;18.94;89.30;93014.94;5089563;28;20237;-69
2022/07/29 04:35:23;;;;;;;13.90;12.60;;;;;;;19.06;86.70;93019.56;5087266;28;20188;-69
2022/07/29 04:37:49;;;;;;;12.77;11.83;;;;;;;19.35;86.30;93014.25;5078150;28;20230;-69
2022/07/29 04:40:14;;;;;;;13.10;12.00;;;;;;;19.50;85.22;93019.00;5070315;28;20254;-68
2022/07/29 04:42:40;;;;;;;12.97;11.93;;;;;;;19.64;84.96;93019.50;5070245;28;20242;-69
2022/07/29 04:45:06;;;;;;;12.90;11.77;;;;;;;19.60;84.68;93020.47;5069814;28;20247;-69
2022/07/29 04:47:31;;;;;;;11.90;11.00;;;;;;;19.94;82.85;93028.91;5068496;28;20222;-68
2022/07/29 04:49:56;;;;;;;15.07;13.43;;;;;;;20.13;82.67;93031.88;5069791;28;20258;-68
2022/07/29 04:52:22;;;;;;;16.87;12.33;;;;;;;20.53;80.01;93037.41;5069217;28;20238;-68
2022/07/29 04:54:48;;;;;;;13.53;12.43;;;;;;;20.47;80.64;93042.16;5069227;28;20195;-68
2022/07/29 04:57:13;;;;;;;13.93;12.63;;;;;;;20.52;82.19;93044.59;5069394;28;20235;-68
2022/07/29 04:59:39;;;;;;;15.20;13.30;;;;;;;20.41;81.88;93046.13;5068943;28;20192;-69
2022/07/29 05:02:04;;;;;;;13.48;12.20;;;;;;;20.89;79.08;93039.34;5066680;28;20207;-68
2022/07/29 05:04:29;;;;;;;13.73;12.43;;;;;;;20.67;79.29;93046.59;5069271;28;20197;-68
2022/07/29 05:06:55;;;;;;;14.27;13.07;;;;;;;20.82;79.07;93047.84;5068697;28;20196;-68
2022/07/29 05:09:20;;;;;;;15.20;13.10;;;;;;;21.02;79.29;93051.53;5068507;28;20196;-68
2022/07/29 05:11:46;;;;;;;14.23;12.83;;;;;;;21.00;78.64;93054.53;5069799;28;20220;-69
2022/07/29 05:14:11;;;;;;;14.57;13.23;;;;;;;21.16;77.55;93055.41;5086365;28;20224;-70
2022/07/29 05:16:36;;;;;;;15.27;13.73;;;;;;;20.77;77.94;93042.75;5087609;28;20303;-69
2022/07/29 05:19:02;;;;;;;15.33;13.93;;;;;;;21.09;77.18;93055.19;5088707;28;20245;-69
2022/07/29 05:21:28;;;;;;;14.63;13.30;;;;;;;20.45;79.69;93062.16;5087847;28;20204;-69
2022/07/29 05:23:53;;;;;;;13.90;12.73;;;;;;;20.80;77.82;93062.53;5086964;28;20295;-69
2022/07/29 05:26:19;;;;;;;15.40;13.97;;;;;;;21.13;76.78;93050.78;5088500;28;20193;-69
2022/07/29 05:28:44;;;;;;;13.40;12.38;;;;;;;21.42;75.89;93061.16;5084879;28;20220;-68
2022/07/29 05:31:09;;;;;;;14.20;13.02;;;;;;;21.28;75.30;93065.25;5087457;28;20200;-69
2022/07/29 05:33:35;;;;;;;14.32;12.77;;;;;;;21.25;76.29;93065.91;5086473;28;20254;-68
2022/07/29 05:36:00;;;;;;;13.18;12.07;;;;;;;21.44;75.64;93052.84;5086972;28;20195;-68
2022/07/29 05:38:27;;;;;;;12.93;12.02;;;;;;;21.45;75.27;93055.19;5085665;28;20223;-69
2022/07/29 05:40:52;;;;;;;13.30;12.20;;;;;;;21.66;75.32;93058.47;5087649;28;20185;-68
2022/07/29 05:43:18;;;;;;;13.50;12.30;;;;;;;21.95;74.35;93060.09;5088072;28;20227;-69
2022/07/29 05:45:43;;;;;;;12.93;12.02;;;;;;;21.95;74.15;93065.41;5088656;28;20180;-69
2022/07/29 05:48:08;;;;;;;12.80;11.70;;;;;;;22.11;74.06;93058.25;5088244;28;20244;-69
2022/07/29 05:50:34;;;;;;;12.38;11.48;;;;;;;22.60;72.22;93072.16;5088725;28;20202;-69
2022/07/29 05:52:59;;;;;;;17.90;16.08;;;;;;;23.75;66.99;93072.31;5086665;28;20229;-68
2022/07/29 05:55:24;;;;;;;13.20;11.95;;;;;;;26.09;59.07;93079.59;5088976;28;20254;-70
2022/07/29 05:57:52;;;;;;;12.25;11.07;;;;;;;26.42;57.88;93079.63;5087663;28;20566;-69
2022/07/29 06:00:17;;;;;;;11.80;10.90;;;;;;;27.76;53.98;93091.66;5088301;28;20230;-69
2022/07/29 06:02:42;;;;;;;10.55;9.88;;;;;;;30.45;46.26;93088.06;5087294;28;20262;-69
2022/07/29 06:05:08;;;;;;;10.65;9.95;;;;;;;32.34;41.13;93104.19;5089303;28;20180;-69
2022/07/29 06:07:33;;;;;;;10.57;9.88;;;;;;;34.35;36.22;93113.03;5088384;28;20216;-69
2022/07/29 06:09:59;;;;;;;10.82;9.90;;;;;;;34.73;33.75;93112.31;5089132;28;20195;-70
2022/07/29 06:12:24;;;;;;;10.18;9.38;;;;;;;34.27;33.84;93106.19;5085020;28;20223;-70
2022/07/29 06:14:50;;;;;;;9.27;8.68;;;;;;;33.75;35.40;93114.00;5088541;28;20184;-69
2022/07/29 06:17:16;;;;;;;10.38;9.57;;;;;;;34.78;32.90;93113.78;5085788;28;20261;-70
2022/07/29 06:19:41;;;;;;;9.30;8.60;;;;;;;35.64;31.28;93106.94;5067791;28;20937;-67
2022/07/29 06:22:06;;;;;;;9.57;8.88;;;;;;;37.14;29.77;93101.47;5070300;28;20197;-72
2022/07/29 06:24:32;;;;;;;9.45;8.50;;;;;;;37.27;29.44;93113.19;5088366;28;20188;-72
2022/07/29 06:26:57;;;;;;;9.48;8.77;;;;;;;36.25;30.19;93112.47;5085979;28;20192;-72
2022/07/29 06:29:23;;;;;;;9.00;8.20;;;;;;;35.92;31.17;93113.66;5088606;28;20233;-71
2022/07/29 06:31:48;;;;;;;9.60;8.80;;;;;;;35.66;31.81;93106.50;5086745;28;20730;-71
2022/07/29 06:34:14;;;;;;;9.20;8.43;;;;;;;36.26;30.13;93116.69;5087933;28;20275;-71
2022/07/29 06:36:39;;;;;;;8.82;8.13;;;;;;;35.41;32.47;93093.50;5088208;28;20671;-71
2022/07/29 06:39:06;;;;;;;9.30;8.50;;;;;;;36.70;30.00;93089.47;5087720;28;20287;-72
2022/07/29 06:41:32;;;;;;;8.32;7.72;;;;;;;34.38;33.38;93096.72;5088479;28;20213;-70
2022/07/29 06:43:57;;;;;;;8.93;8.32;;;;;;;30.74;38.82;93084.09;5087905;28;20225;-72
2022/07/29 06:46:23;;;;;;;9.75;8.73;;;;;;;28.61;45.61;93080.28;5088638;28;20185;-71
2022/07/29 06:48:49;;;;;;;9.40;8.77;;;;;;;27.47;48.24;93063.09;5071765;28;20226;-71
2022/07/29 06:51:15;;;;;;;10.25;9.50;;;;;;;26.82;50.23;93067.47;5067988;28;20188;-69
2022/07/29 06:53:41;;;;;;;9.50;8.90;;;;;;;25.51;54.66;93050.84;5081180;28;20680;-72
2022/07/29 06:56:10;;;;;;;10.98;10.05;;;;;;;25.08;58.25;93060.84;5087549;28;20265;-72
2022/07/29 06:58:35;;;;;;;10.38;9.68;;;;;;;25.24;57.64;93068.72;5087934;28;20221;-70
2022/07/29 07:01:03;;;;;;;11.30;10.45;;;;;;;24.95;59.21;93064.81;5087947;28;20232;-71
2022/07/29 07:03:29;;;;;;;12.07;11.23;;;;;;;24.80;59.44;93048.88;5087912;28;20233;-71
2022/07/29 07:05:54;;;;;;;12.23;11.23;;;;;;;25.00;60.40;93055.72;5087565;28;20200;-70
2022/07/29 07:08:21;;;;;;;11.25;10.25;;;;;;;24.88;60.61;93064.69;5087751;28;20228;-70
2022/07/29 07:10:47;;;;;;;10.70;10.00;;;;;;;24.64;61.17;93053.53;5090411;28;20188;-69
2022/07/29 07:13:13;;;;;;;11.45;10.52;;;;;;;24.70;62.78;93054.81;5091075;28;20235;-71
2022/07/29 07:15:38;;;;;;;10.20;9.55;;;;;;;24.88;62.08;93054.00;5091304;28;20234;-71
2022/07/29 07:18:05;;;;;;;11.48;10.57;;;;;;;25.23;60.33;93059.94;5080622;28;20258;-69
2022/07/29 07:20:31;;;;;;;11.30;10.43;;;;;;;25.09;61.34;93061.63;5070834;28;20260;-69
2022/07/29 07:22:57;;;;;;;10.18;9.43;;;;;;;25.00;59.34;93061.06;5071187;28;20224;-71
2022/07/29 07:25:22;;;;;;;10.60;9.80;;;;;;;24.98;58.18;93041.97;5070231;28;20192;-70
2022/07/29 07:27:47;;;;;;;11.57;10.40;;;;;;;24.97;58.43;93053.75;5080573;28;20239;-69
2022/07/29 07:30:13;;;;;;;10.80;10.02;;;;;;;24.85;60.75;93036.03;5091261;28;20206;-69
2022/07/29 07:32:39;;;;;;;11.80;10.45;;;;;;;24.90;59.53;93059.00;5089941;28;20235;-67
2022/07/29 07:35:06;;;;;;;11.23;10.43;;;;;;;24.63;59.10;93051.97;5090055;28;20198;-67
2022/07/29 07:37:32;;;;;;;10.23;9.52;;;;;;;24.80;59.87;93055.00;5090813;28;20234;-67
2022/07/29 07:39:57;;;;;;;10.98;10.07;;;;;;;24.98;59.49;93052.66;5092216;28;20190;-68
2022/07/29 07:42:23;;;;;;;11.02;10.15;;;;;;;24.73;60.94;93054.13;5090318;28;20223;-69
2022/07/29 07:44:49;;;;;;;9.88;9.18;;;;;;;24.78;58.70;93051.16;5088117;28;20198;-69
2022/07/29 07:47:19;;;;;;;10.38;9.52;;;;;;;25.01;59.54;93057.28;5090872;28;20223;-70
2022/07/29 07:49:47;;;;;;;10.55;9.82;;;;;;;25.15;59.26;93060.19;5090298;28;20218;-67
2022/07/29 07:52:15;;;;;;;10.32;9.63;;;;;;;25.18;57.69;93054.88;5090458;28;20234;-67
2022/07/29 07:54:40;;;;;;;10.35;9.55;;;;;;;25.19;56.96;93052.97;5089534;28;20184;-67
2022/07/29 07:57:06;;;;;;;10.60;9.80;;;;;;;25.24;58.73;93053.47;5089316;28;20291;-69
2022/07/29 07:59:31;;;;;;;9.35;8.65;;;;;;;25.44;57.52;93056.84;5091644;28;20202;-69
2022/07/29 08:01:57;;;;;;;9.70;9.00;;;;;;;25.62;56.84;93049.84;5090281;28;20188;-69
2022/07/29 08:04:24;;;;;;;9.52;8.93;;;;;;;25.85;55.36;93047.91;5090934;28;20216;-68
2022/07/29 08:06:50;;;;;;;9.95;9.05;;;;;;;25.89;55.81;93051.38;5090084;28;20208;-69
2022/07/29 08:09:16;;;;;;;9.48;8.88;;;;;;;25.99;54.47;93048.13;5089284;28;20268;-68
2022/07/29 08:11:41;;;;;;;8.98;8.18;;;;;;;25.80;54.36;93058.91;5089496;28;20207;-68
2022/07/29 08:14:06;;;;;;;10.55;9.75;;;;;;;25.67;56.65;93054.91;5090077;28;20227;-68
2022/07/29 08:16:32;;;;;;;10.30;9.48;;;;;;;25.77;56.16;93056.97;5090143;28;20212;-67
2022/07/29 08:18:57;;;;;;;9.68;9.05;;;;;;;25.79;56.37;93045.91;5089431;28;20294;-68
2022/07/29 08:21:24;;;;;;;10.38;9.50;;;;;;;26.02;54.24;93055.41;5088292;28;20200;-71
2022/07/29 08:23:52;;;;;;;10.85;10.05;;;;;;;25.78;54.21;93045.13;5088564;28;20232;-70
2022/07/29 08:26:22;;;;;;;10.20;9.50;;;;;;;25.65;54.29;93043.03;5089899;28;20176;-71
2022/07/29 08:28:50;;;;;;;10.30;9.63;;;;;;;25.70;53.60;93045.41;5072291;28;20227;-72
2022/07/29 08:31:16;;;;;;;9.80;9.20;;;;;;;25.54;54.01;93024.16;5070099;28;20193;-72
2022/07/29 08:33:42;;;;;;;10.57;9.65;;;;;;;25.79;54.26;93046.66;5069871;28;20237;-71
2022/07/29 08:36:08;;;;;;;10.00;9.23;;;;;;;26.11;53.16;93047.88;5069713;28;20299;-72
2022/07/29 08:38:34;;;;;;;10.05;9.35;;;;;;;26.09;52.38;93039.44;5068464;28;20332;-70
2022/07/29 08:41:02;;;;;;;10.40;9.70;;;;;;;26.15;52.42;93055.97;5070023;28;20202;-70
2022/07/29 08:43:28;;;;;;;9.77;8.98;;;;;;;25.96;51.17;93031.97;5069811;28;20224;-72
2022/07/29 08:45:54;;;;;;;9.93;9.32;;;;;;;26.29;51.02;93048.84;5070378;28;20196;-71
2022/07/29 08:48:21;;;;;;;9.80;9.20;;;;;;;26.54;50.83;93041.09;5070362;28;20321;-70
2022/07/29 08:50:49;;;;;;;10.82;10.13;;;;;;;26.76;50.08;93055.53;5068454;28;20177;-70
2022/07/29 08:53:17;;;;;;;10.15;9.55;;;;;;;26.98;49.20;93058.03;5069858;28;20248;-71
2022/07/29 08:55:44;;;;;;;9.50;8.90;;;;;;;27.01;48.84;93051.94;5070840;28;20185;-71
2022/07/29 08:58:10;;;;;;;10.45;9.70;;;;;;;27.16;49.56;93055.53;5070627;28;20221;-70
2022/07/29 09:00:40;;;;;;;10.07;9.43;;;;;;;27.24;50.41;93054.44;5070184;28;20200;-70
2022/07/29 09:03:06;;;;;;;9.38;8.77;;;;;;;27.30;48.14;93039.59;5070199;28;20260;-71
2022/07/29 09:05:32;;;;;;;10.77;10.10;;;;;;;26.85;53.60;93053.31;5070015;28;20196;-71
2022/07/29 09:07:58;;;;;;;10.70;9.95;;;;;;;27.15;47.12;93052.06;5068622;28;20295;-69
2022/07/29 09:10:24;;;;;;;9.70;8.90;;;;;;;26.99;48.52;93045.41;5069633;28;20180;-72
2022/07/29 09:12:50;;;;;;;9.60;8.85;;;;;;;27.10;49.00;93046.28;5070110;28;20285;-72
2022/07/29 09:15:15;;;;;;;9.70;8.98;;;;;;;27.14;48.66;93044.41;5069457;28;20197;-71
2022/07/29 09:17:46;;;;;;;8.82;8.32;;;;;;;27.06;47.07;93042.78;5068218;28;20224;-72
2022/07/29 09:20:15;;;;;;;10.20;9.35;;;;;;;26.65;48.72;93050.06;5068139;28;20623;-72
2022/07/29 09:22:40;;;;;;;10.00;9.30;;;;;;;26.65;49.87;93048.16;5069604;28;20241;-72
2022/07/29 09:25:06;;;;;;;9.70;9.00;;;;;;;26.87;51.02;93040.31;5069567;28;20182;-72
2022/07/29 09:27:33;;;;;;;10.05;9.15;;;;;;;27.15;49.04;93043.25;5068686;28;20221;-73
2022/07/29 09:30:06;;;;;;;9.70;9.05;;;;;;;27.15;49.56;93035.19;5069657;28;20200;-72
2022/07/29 09:32:33;;;;;;;9.90;9.27;;;;;;;27.37;48.06;93047.69;5074913;28;20787;-72
2022/07/29 09:35:21;;;;;;;9.57;8.88;;;;;;;27.53;47.72;93032.88;5088239;28;20196;-72
2022/07/29 09:37:48;;;;;;;10.00;9.05;;;;;;;27.83;47.75;93048.78;5088087;28;20224;-73
2022/07/29 09:40:25;;;;;;;10.35;9.45;;;;;;;27.54;48.44;93041.66;5086852;28;20191;-72
2022/07/29 09:42:52;;;;;;;10.07;9.38;;;;;;;27.10;51.46;93027.53;5087471;28;20250;-72
2022/07/29 09:45:31;;;;;;;9.70;8.80;;;;;;;27.38;48.83;93039.25;5088561;28;20201;-72
2022/07/29 09:48:00;;;;;;;9.65;8.98;;;;;;;27.48;48.20;93045.84;5086703;28;20365;-71
2022/07/29 09:50:40;;;;;;;10.75;10.00;;;;;;;27.41;50.46;93037.75;5084731;28;20326;-72
2022/07/29 09:53:05;;;;;;;11.02;10.15;;;;;;;27.32;49.65;93030.00;5088772;28;20216;-73
2022/07/29 09:55:32;;;;;;;10.02;9.32;;;;;;;27.66;53.28;93030.66;5090170;28;20184;-72
2022/07/29 09:58:21;;;;;;;9.85;9.20;;;;;;;28.34;46.51;93030.63;5088446;28;20280;-72
2022/07/29 10:00:48;;;;;;;10.02;9.32;;;;;;;28.53;46.77;93035.72;5088725;28;20257;-70
2022/07/29 10:03:15;;;;;;;10.20;9.50;;;;;;;28.50;43.65;93028.41;5087913;28;20231;-73
2022/07/29 10:05:41;;;;;;;9.52;8.88;;;;;;;28.35;45.16;93024.09;5089357;28;20216;-73
2022/07/29 10:08:08;;;;;;;10.63;9.77;;;;;;;28.19;46.41;93029.81;5089016;28;20231;-72
2022/07/29 10:10:36;;;;;;;10.02;9.32;;;;;;;27.95;45.87;93018.97;5088239;28;20185;-72
2022/07/29 10:13:08;;;;;;;10.25;9.52;;;;;;;28.26;46.29;93018.31;5089274;28;20246;-72
2022/07/29 10:15:40;;;;;;;9.57;8.98;;;;;;;28.29;46.59;93012.19;5089262;28;20216;-73
2022/07/29 10:18:06;;;;;;;11.38;10.45;;;;;;;28.31;47.28;93011.81;5087838;28;20299;-73
2022/07/29 10:20:32;;;;;;;10.55;9.75;;;;;;;28.31;47.09;92999.16;5089759;28;20181;-72
2022/07/29 10:22:57;;;;;;;10.13;9.43;;;;;;;27.94;46.88;92985.97;5089166;28;20227;-72
2022/07/29 10:25:24;;;;;;;14.82;12.70;;;;;;;27.85;47.69;93000.84;5090489;28;20180;-73
2022/07/29 10:27:54;;;;;;;28.17;20.73;;;;;;;27.65;47.98;92988.84;5087299;28;20228;-72
2022/07/29 10:30:21;;;;;;;19.02;16.25;;;;;;;27.33;51.35;92990.56;5089440;28;20199;-72
2022/07/29 10:33:07;;;;;;;15.27;13.13;;;;;;;27.14;53.66;92990.78;5086920;28;20235;-71
2022/07/29 10:35:54;;;;;;;11.27;10.23;;;;;;;27.50;51.34;92995.28;5087435;28;20184;-73
2022/07/29 10:38:43;;;;;;;11.05;10.27;;;;;;;28.02;49.71;92987.53;5088495;28;20220;-72
2022/07/29 10:41:34;;;;;;;10.63;9.93;;;;;;;28.25;47.18;92996.06;5088718;28;20180;-71
2022/07/29 10:44:12;;;;;;;9.77;9.18;;;;;;;28.10;46.41;92989.13;5069128;28;20247;-72
2022/07/29 10:46:40;;;;;;;9.23;8.55;;;;;;;27.87;47.35;92979.75;5072640;28;20264;-72
2022/07/29 10:49:16;;;;;;;10.13;9.43;;;;;;;27.61;46.97;92988.06;5087137;28;20229;-73
2022/07/29 10:52:14;;;;;;;9.20;8.60;;;;;;;27.59;47.06;92987.66;5073181;28;20212;-72
2022/07/29 10:54:48;;;;;;;9.43;8.70;;;;;;;27.63;47.78;92981.16;5049673;28;20216;-72
2022/07/29 10:57:16;;;;;;;10.25;9.52;;;;;;;27.60;47.00;92978.47;5075712;28;20228;-72
2022/07/29 10:59:47;;;;;;;9.57;8.90;;;;;;;27.66;48.23;92974.31;5093518;28;20244;-73
2022/07/29 11:02:42;;;;;;;10.50;9.70;;;;;;;27.61;49.71;92974.66;5085700;28;20238;-72
2022/07/29 11:05:12;;;;;;;10.10;9.30;;;;;;;27.49;47.20;92969.56;5061260;28;20193;-72
2022/07/29 11:07:39;;;;;;;9.60;8.95;;;;;;;27.79;45.31;92978.97;5063570;28;20225;-72
2022/07/29 11:10:14;;;;;;;10.45;9.65;;;;;;;28.29;44.83;92977.28;5066614;28;20180;-71
2022/07/29 11:12:42;;;;;;;9.27;8.52;;;;;;;28.37;45.81;92976.16;5069351;28;20224;-72
2022/07/29 11:15:16;;;;;;;10.10;9.30;;;;;;;28.45;42.36;92976.94;5065795;28;20185;-72
2022/07/29 11:17:54;;;;;;;9.35;8.55;;;;;;;28.39;42.47;92976.53;5065637;28;20236;-74
2022/07/29 11:20:33;;;;;;;10.10;9.48;;;;;;;28.05;45.08;92970.66;5064997;28;20185;-73
2022/07/29 11:22:59;;;;;;;9.65;9.02;;;;;;;28.23;45.04;92965.38;5066978;28;20247;-72
2022/07/29 11:25:24;;;;;;;10.15;9.38;;;;;;;28.31;45.56;92966.16;5071986;28;20204;-73
2022/07/29 11:28:08;;;;;;;9.38;8.60;;;;;;;27.88;44.83;92959.84;5079280;28;20228;-70